Time;durP1;ratioP1;P1;durP2;ratioP2;P2;SDS_P1;SDS_P2;PMS_P1;PMS_P2;Temp;Humidity;BMP_temperature;BMP_pressure;BME280_temperature;BME280_humidity;BME280_pressure;Samples;Min_cycle;Max_cycle;Signal;HPM_P1;HPM_P2
2022/07/24 00:01:21;;;;;;;2.90;2.60;;;;;;;20.82;49.76;100232.16;4974346;28;20070;-66
2022/07/24 00:03:48;;;;;;;3.97;2.60;;;;;;;20.82;50.09;100231.34;4974290;28;20519;-66
2022/07/24 00:06:14;;;;;;;2.92;2.20;;;;;;;20.80;50.21;100228.81;4974106;28;20480;-64
2022/07/24 00:08:41;;;;;;;4.03;2.60;;;;;;;20.80;50.14;100223.47;4974275;28;20046;-64
2022/07/24 00:11:08;;;;;;;3.83;2.60;;;;;;;20.80;50.50;100228.81;4974122;28;20106;-67
2022/07/24 00:13:34;;;;;;;3.63;2.30;;;;;;;20.82;50.31;100226.81;4974319;28;20118;-65
2022/07/24 00:16:01;;;;;;;2.83;2.50;;;;;;;20.82;50.71;100226.00;4974157;28;20047;-65
2022/07/24 00:18:28;;;;;;;3.03;2.08;;;;;;;20.78;50.78;100220.06;4973661;28;20058;-67
2022/07/24 00:20:54;;;;;;;2.60;2.30;;;;;;;20.78;50.50;100224.59;4974126;28;20483;-65
2022/07/24 00:23:22;;;;;;;2.53;2.30;;;;;;;20.74;50.57;100220.50;4974239;28;20046;-65
2022/07/24 00:25:48;;;;;;;3.17;2.17;;;;;;;20.71;50.25;100213.63;4972978;28;20125;-65
2022/07/24 00:28:15;;;;;;;2.95;2.10;;;;;;;20.69;50.41;100218.25;4973783;28;20138;-65
2022/07/24 00:30:42;;;;;;;4.53;2.38;;;;;;;20.66;50.64;100222.06;4973816;28;20106;-64
2022/07/24 00:33:09;;;;;;;2.67;2.10;;;;;;;20.64;50.71;100226.69;4973658;28;20055;-66
2022/07/24 00:35:36;;;;;;;2.50;2.30;;;;;;;20.62;50.78;100226.00;4973919;28;20066;-64
2022/07/24 00:38:03;;;;;;;5.15;2.10;;;;;;;20.60;50.93;100224.47;4973606;28;20534;-66
2022/07/24 00:40:30;;;;;;;2.58;2.20;;;;;;;20.59;51.09;100223.59;4972403;28;20057;-65
2022/07/24 00:42:57;;;;;;;2.47;2.15;;;;;;;20.57;50.69;100225.59;4962366;28;20500;-66
2022/07/24 00:45:24;;;;;;;2.95;1.60;;;;;;;20.54;50.33;100224.03;4965869;28;20400;-65
2022/07/24 00:47:52;;;;;;;4.50;1.75;;;;;;;20.53;50.66;100225.00;4973476;28;20113;-65
2022/07/24 00:50:24;;;;;;;2.13;1.80;;;;;;;20.51;50.90;100223.47;4971261;28;20514;-65
2022/07/24 00:52:51;;;;;;;3.72;1.77;;;;;;;20.50;51.32;100224.44;4962034;28;20298;-65
2022/07/24 00:55:20;;;;;;;1.70;1.60;;;;;;;20.49;51.01;100217.41;4971951;28;20042;-64
2022/07/24 00:57:48;;;;;;;1.85;1.50;;;;;;;20.47;50.94;100219.38;4972146;28;20499;-64
2022/07/24 01:00:18;;;;;;;1.75;1.40;;;;;;;20.45;51.36;100219.53;4971725;28;20475;-64
2022/07/24 01:02:44;;;;;;;3.08;1.70;;;;;;;20.43;51.06;100225.03;4973380;28;20048;-64
2022/07/24 01:05:12;;;;;;;3.85;1.58;;;;;;;20.41;51.20;100226.16;4973009;28;20058;-67
2022/07/24 01:07:38;;;;;;;1.30;1.20;;;;;;;20.38;51.12;100213.91;4973563;28;20062;-65
2022/07/24 01:10:06;;;;;;;2.75;1.30;;;;;;;20.36;51.19;100210.53;4972754;28;20385;-66
2022/07/24 01:12:35;;;;;;;3.08;1.67;;;;;;;20.36;51.06;100210.53;4971720;28;20109;-65
2022/07/24 01:15:04;;;;;;;1.77;1.35;;;;;;;20.33;51.07;100205.44;4971949;28;20059;-65
2022/07/24 01:17:35;;;;;;;2.33;1.40;;;;;;;20.31;51.40;100208.25;4973160;28;20405;-64
2022/07/24 01:20:04;;;;;;;3.65;1.50;;;;;;;20.28;51.26;100191.66;4971474;28;20062;-67
2022/07/24 01:22:31;;;;;;;4.05;1.60;;;;;;;20.28;51.33;100197.88;4971801;28;20057;-64
2022/07/24 01:24:58;;;;;;;2.85;1.15;;;;;;;20.27;51.47;100203.34;4971765;28;20081;-65
2022/07/24 01:27:25;;;;;;;1.30;1.20;;;;;;;20.26;51.22;100202.50;4971553;28;20043;-65
2022/07/24 01:29:52;;;;;;;2.38;1.60;;;;;;;20.25;51.61;100203.47;4971217;28;20054;-64
2022/07/24 01:32:19;;;;;;;4.72;1.80;;;;;;;20.25;51.43;100197.28;4972576;28;20055;-64
2022/07/24 01:34:46;;;;;;;2.45;1.67;;;;;;;20.23;51.28;100202.78;4972780;28;20046;-65
2022/07/24 01:37:13;;;;;;;2.92;1.52;;;;;;;20.23;51.20;100208.13;4971208;28;20062;-65
2022/07/24 01:39:39;;;;;;;1.80;1.58;;;;;;;20.23;51.55;100204.59;4972194;28;20051;-65
2022/07/24 01:42:06;;;;;;;5.25;1.98;;;;;;;20.23;51.75;100200.13;4972466;28;20046;-64
2022/07/24 01:44:33;;;;;;;3.42;1.80;;;;;;;20.25;51.44;100208.81;4972685;28;20058;-64
2022/07/24 01:46:59;;;;;;;3.17;1.95;;;;;;;20.24;51.40;100200.94;4971239;28;20047;-65
2022/07/24 01:49:26;;;;;;;3.08;1.60;;;;;;;20.25;51.48;100199.94;4972264;28;20058;-67
2022/07/24 01:51:52;;;;;;;2.50;1.45;;;;;;;20.26;51.49;100199.81;4972583;28;20063;-65
2022/07/24 01:54:19;;;;;;;5.07;1.58;;;;;;;20.27;51.45;100198.00;4972321;28;20063;-65
2022/07/24 01:56:45;;;;;;;2.13;1.45;;;;;;;20.27;51.56;100200.69;4971271;28;20059;-64
2022/07/24 01:59:12;;;;;;;1.42;1.33;;;;;;;20.26;51.52;100201.66;4972019;28;20113;-64
2022/07/24 02:01:40;;;;;;;1.83;1.50;;;;;;;20.26;51.37;100201.66;4972305;28;20154;-65
2022/07/24 02:04:06;;;;;;;3.90;1.77;;;;;;;20.27;51.47;100204.22;4972301;28;20050;-65
2022/07/24 02:06:33;;;;;;;2.60;1.50;;;;;;;20.26;51.17;100202.50;4961071;28;20113;-65
2022/07/24 02:09:00;;;;;;;4.07;1.83;;;;;;;20.26;51.50;100199.00;4971893;28;20131;-65
2022/07/24 02:11:27;;;;;;;5.35;1.67;;;;;;;20.26;51.78;100199.00;4972109;28;20045;-64
2022/07/24 02:13:55;;;;;;;3.22;1.70;;;;;;;20.26;51.63;100193.66;4971638;28;20053;-65
2022/07/24 02:16:22;;;;;;;3.03;1.67;;;;;;;20.26;51.61;100201.66;4970460;28;20063;-64
2022/07/24 02:18:48;;;;;;;4.40;1.52;;;;;;;20.25;51.29;100203.47;4971750;28;20043;-67
2022/07/24 02:21:15;;;;;;;3.08;1.90;;;;;;;20.24;51.34;100195.59;4971888;28;20050;-65
2022/07/24 02:23:41;;;;;;;3.30;1.55;;;;;;;20.24;51.68;100196.47;4971966;28;20046;-64
2022/07/24 02:26:08;;;;;;;4.63;1.58;;;;;;;20.23;51.50;100193.91;4971947;28;20051;-64
2022/07/24 02:28:35;;;;;;;2.65;1.60;;;;;;;20.22;51.64;100189.56;4970388;28;20117;-65
2022/07/24 02:31:02;;;;;;;1.80;1.20;;;;;;;20.22;51.63;100201.09;4971826;28;20105;-64
2022/07/24 02:33:28;;;;;;;3.00;1.30;;;;;;;20.21;51.30;100195.88;4970568;28;20109;-64
2022/07/24 02:35:55;;;;;;;1.30;1.20;;;;;;;20.21;51.47;100188.72;4971716;28;20055;-65
2022/07/24 02:38:21;;;;;;;2.30;1.30;;;;;;;20.22;51.75;100192.22;4971572;28;20059;-66
2022/07/24 02:40:48;;;;;;;2.38;1.20;;;;;;;20.22;51.52;100187.72;4971640;28;20105;-65
2022/07/24 02:43:15;;;;;;;2.65;1.33;;;;;;;20.22;51.23;100184.22;4971439;28;20054;-65
2022/07/24 02:45:42;;;;;;;2.08;1.55;;;;;;;20.22;51.37;100179.69;4971679;28;20491;-65
2022/07/24 02:48:08;;;;;;;2.53;1.17;;;;;;;20.23;51.41;100175.22;4971333;28;20492;-64
2022/07/24 02:50:38;;;;;;;1.85;1.20;;;;;;;20.24;51.15;100169.72;4971316;28;20058;-65
2022/07/24 02:53:06;;;;;;;2.55;1.25;;;;;;;20.24;51.33;100171.53;4970517;28;20130;-67
2022/07/24 02:55:33;;;;;;;2.20;1.42;;;;;;;20.25;51.35;100165.19;4971609;28;20499;-65
2022/07/24 02:58:00;;;;;;;7.40;1.70;;;;;;;20.26;51.51;100172.25;4971717;28;20412;-64
2022/07/24 03:00:26;;;;;;;4.72;1.50;;;;;;;20.26;51.24;100178.44;4971585;28;20053;-65
2022/07/24 03:02:53;;;;;;;2.33;1.08;;;;;;;20.28;51.17;100173.81;4971436;28;20062;-65
2022/07/24 03:05:20;;;;;;;1.70;1.42;;;;;;;20.29;51.14;100163.94;4971436;28;20396;-66
2022/07/24 03:07:49;;;;;;;1.25;1.15;;;;;;;20.29;51.47;100163.94;4971456;28;20492;-65
2022/07/24 03:10:16;;;;;;;1.50;0.90;;;;;;;20.30;51.27;100160.31;4971374;28;20133;-65
2022/07/24 03:12:43;;;;;;;1.88;1.30;;;;;;;20.31;51.77;100156.63;4971395;28;20101;-65
2022/07/24 03:15:10;;;;;;;7.78;1.20;;;;;;;20.31;51.85;100162.81;4971396;28;20050;-65
2022/07/24 03:17:37;;;;;;;1.85;1.20;;;;;;;20.32;51.50;100150.31;4970036;28;20491;-64
2022/07/24 03:20:06;;;;;;;1.25;1.05;;;;;;;20.32;51.53;100150.31;4970074;28;20047;-64
2022/07/24 03:22:33;;;;;;;2.35;1.30;;;;;;;20.31;52.05;100154.78;4971706;28;20058;-65
2022/07/24 03:25:01;;;;;;;1.40;1.20;;;;;;;20.31;52.39;100149.44;4971515;28;20057;-65
2022/07/24 03:27:27;;;;;;;1.65;1.30;;;;;;;20.30;52.41;100149.63;4972166;28;20562;-64
2022/07/24 03:29:54;;;;;;;1.55;1.20;;;;;;;20.30;52.29;100154.97;4974754;28;20645;-65
2022/07/24 03:32:21;;;;;;;2.42;1.50;;;;;;;20.28;52.59;100151.56;4974797;28;20522;-65
2022/07/24 03:34:47;;;;;;;3.83;1.02;;;;;;;20.27;52.37;100157.91;4975098;28;20050;-64
2022/07/24 03:37:14;;;;;;;1.30;1.20;;;;;;;20.26;52.08;100156.22;4974970;28;20063;-65
2022/07/24 03:39:40;;;;;;;2.95;1.40;;;;;;;20.23;52.38;100157.34;4973245;28;20483;-64
2022/07/24 03:42:07;;;;;;;1.73;1.27;;;;;;;20.22;52.86;100162.84;4974703;28;20054;-63
2022/07/24 03:44:33;;;;;;;1.30;1.20;;;;;;;20.20;52.77;100162.97;4974611;28;20090;-64
2022/07/24 03:47:00;;;;;;;2.55;1.10;;;;;;;20.17;52.56;100166.78;4973345;28;20062;-66
2022/07/24 03:49:27;;;;;;;2.00;1.30;;;;;;;20.16;52.74;100164.25;4974384;28;20046;-64
2022/07/24 03:51:56;;;;;;;1.65;1.50;;;;;;;20.13;52.50;100173.38;4974453;28;20145;-65
2022/07/24 03:54:23;;;;;;;1.73;1.17;;;;;;;20.11;52.30;100174.50;4974533;28;20054;-64
2022/07/24 03:56:51;;;;;;;1.73;1.20;;;;;;;20.09;52.60;100169.28;4974583;28;20047;-65
2022/07/24 03:59:18;;;;;;;5.35;1.50;;;;;;;20.09;52.66;100168.44;4974049;28;20055;-65
2022/07/24 04:01:45;;;;;;;2.00;1.40;;;;;;;20.08;52.72;100166.75;4974075;28;20054;-64
2022/07/24 04:04:12;;;;;;;1.30;1.20;;;;;;;20.09;52.95;100155.09;4974218;28;20488;-64
2022/07/24 04:06:40;;;;;;;2.22;1.45;;;;;;;20.10;52.68;100157.63;4974427;28;20046;-66
2022/07/24 04:09:08;;;;;;;4.25;2.20;;;;;;;20.12;52.79;100165.50;4972761;28;20054;-66
2022/07/24 04:11:35;;;;;;;2.22;1.73;;;;;;;20.12;52.53;100161.00;4974181;28;20043;-66
2022/07/24 04:14:02;;;;;;;2.50;1.50;;;;;;;20.16;52.86;100167.75;4972808;28;20525;-65
2022/07/24 04:16:29;;;;;;;2.75;1.60;;;;;;;20.18;53.02;100164.94;4974190;28;20526;-64
2022/07/24 04:18:55;;;;;;;5.05;1.77;;;;;;;20.22;52.50;100162.84;4973958;28;20495;-65
2022/07/24 04:21:22;;;;;;;1.85;1.48;;;;;;;20.23;52.14;100156.50;4974228;28;20498;-66
2022/07/24 04:23:49;;;;;;;3.33;1.63;;;;;;;20.26;52.42;100156.22;4974012;28;20050;-64
2022/07/24 04:26:15;;;;;;;1.73;1.40;;;;;;;20.28;52.59;100162.25;4974003;28;20050;-65
2022/07/24 04:28:42;;;;;;;2.63;1.80;;;;;;;20.31;52.51;100159.31;4973536;28;20059;-65
2022/07/24 04:31:09;;;;;;;2.63;1.60;;;;;;;20.33;52.36;100151.97;4973834;28;20407;-65
2022/07/24 04:33:35;;;;;;;1.75;1.48;;;;;;;20.36;52.63;100157.06;4973753;28;20050;-66
2022/07/24 04:36:04;;;;;;;1.90;1.50;;;;;;;20.41;52.44;100156.63;4973766;28;20058;-65
2022/07/24 04:38:32;;;;;;;2.03;1.45;;;;;;;20.43;52.21;100152.84;4971826;28;20053;-64
2022/07/24 04:41:00;;;;;;;4.53;1.83;;;;;;;20.48;51.87;100157.75;4972357;28;20058;-65
2022/07/24 04:43:26;;;;;;;3.95;1.80;;;;;;;20.52;51.93;100155.66;4972265;28;20061;-64
2022/07/24 04:45:53;;;;;;;3.45;1.90;;;;;;;20.54;52.03;100159.00;4973590;28;20551;-65
2022/07/24 04:48:20;;;;;;;2.78;1.85;;;;;;;20.56;51.87;100152.53;4973567;28;20062;-66
2022/07/24 04:50:46;;;;;;;2.08;1.88;;;;;;;20.58;52.04;100152.38;4973557;28;20043;-65
2022/07/24 04:53:13;;;;;;;2.08;1.80;;;;;;;20.61;52.17;100149.44;4973206;28;20132;-65
2022/07/24 04:55:39;;;;;;;3.17;2.00;;;;;;;20.65;51.97;100148.16;4973221;28;20062;-65
2022/07/24 04:58:06;;;;;;;2.28;1.80;;;;;;;20.68;52.11;100153.19;4973216;28;20113;-64
2022/07/24 05:00:33;;;;;;;3.53;2.00;;;;;;;20.73;52.04;100149.25;4973328;28;20109;-65
2022/07/24 05:02:59;;;;;;;2.20;1.92;;;;;;;20.75;52.17;100150.78;4973215;28;20053;-65
2022/07/24 05:05:26;;;;;;;2.30;1.95;;;;;;;20.79;51.97;100146.00;4972082;28;20050;-66
2022/07/24 05:07:52;;;;;;;4.63;1.90;;;;;;;20.83;51.92;100145.56;4973002;28;20495;-64
2022/07/24 05:10:19;;;;;;;2.53;2.13;;;;;;;20.86;51.59;100141.75;4971840;28;20113;-64
2022/07/24 05:12:46;;;;;;;2.50;2.15;;;;;;;20.91;51.83;100138.69;4973320;28;20597;-64
2022/07/24 05:15:12;;;;;;;3.05;2.17;;;;;;;20.94;51.72;100141.06;4973214;28;20484;-64
2022/07/24 05:17:39;;;;;;;3.35;2.08;;;;;;;20.96;51.76;100136.41;4973160;28;20058;-65
2022/07/24 05:20:06;;;;;;;3.92;2.15;;;;;;;21.01;51.63;100144.00;4972741;28;20065;-65
2022/07/24 05:22:33;;;;;;;3.05;2.53;;;;;;;21.04;51.58;100141.03;4971549;28;20138;-64
2022/07/24 05:24:59;;;;;;;3.00;2.42;;;;;;;21.05;51.58;100135.53;4972813;28;20059;-78
2022/07/24 05:27:26;;;;;;;4.13;2.88;;;;;;;21.09;51.67;100142.25;4972984;28;20055;-66
2022/07/24 05:29:53;;;;;;;6.10;2.38;;;;;;;21.11;51.54;100139.44;4972789;28;20462;-65
2022/07/24 05:32:19;;;;;;;4.13;2.70;;;;;;;21.13;51.45;100140.16;4972638;28;20105;-64
2022/07/24 05:34:46;;;;;;;3.35;2.80;;;;;;;21.14;51.39;100136.47;4972497;28;20062;-64
2022/07/24 05:37:12;;;;;;;3.17;2.35;;;;;;;21.17;51.52;100135.34;4972366;28;20043;-64
2022/07/24 05:39:39;;;;;;;4.50;2.72;;;;;;;21.19;51.45;100141.38;4971390;28;20559;-64
2022/07/24 05:42:06;;;;;;;3.35;2.50;;;;;;;21.19;51.61;100139.56;4972672;28;20534;-64
2022/07/24 05:44:32;;;;;;;4.88;2.72;;;;;;;21.22;51.45;100144.63;4972516;28;20050;-64
2022/07/24 05:46:59;;;;;;;3.35;2.92;;;;;;;21.22;51.28;100146.44;4972149;28;20121;-65
2022/07/24 05:49:26;;;;;;;3.17;2.88;;;;;;;21.25;51.43;100142.63;4971985;28;20670;-64
2022/07/24 05:51:53;;;;;;;2.97;2.45;;;;;;;21.28;51.32;100147.69;4971102;28;20513;-65
2022/07/24 05:54:20;;;;;;;2.50;2.30;;;;;;;21.31;51.37;100150.09;4972407;28;20054;-63
2022/07/24 05:56:46;;;;;;;4.30;2.45;;;;;;;21.35;51.26;100146.94;4971226;28;20101;-64
2022/07/24 05:59:13;;;;;;;3.38;3.08;;;;;;;21.38;51.48;100148.47;4972069;28;20389;-65
2022/07/24 06:01:39;;;;;;;5.38;2.75;;;;;;;21.41;51.31;100142.00;4971888;28;20491;-64
2022/07/24 06:04:06;;;;;;;3.08;2.63;;;;;;;21.45;51.21;100144.22;4971955;28;20480;-64
2022/07/24 06:06:33;;;;;;;3.47;2.80;;;;;;;21.50;51.04;100150.97;4972117;28;20060;-63
2022/07/24 06:08:59;;;;;;;4.50;3.28;;;;;;;21.52;50.94;100146.31;4971688;28;20515;-65
2022/07/24 06:11:26;;;;;;;3.03;2.72;;;;;;;21.56;51.06;100142.31;4972033;28;20377;-64
2022/07/24 06:13:55;;;;;;;3.72;3.00;;;;;;;21.57;50.91;100142.19;4972114;28;20499;-64
2022/07/24 06:16:22;;;;;;;5.22;3.25;;;;;;;21.60;50.71;100147.25;4972011;28;20051;-65
2022/07/24 06:18:49;;;;;;;6.90;3.08;;;;;;;21.63;50.79;100138.06;4971740;28;20058;-65
2022/07/24 06:21:15;;;;;;;3.50;3.20;;;;;;;21.66;50.67;100137.75;4972182;28;20114;-66
2022/07/24 06:23:42;;;;;;;3.85;2.65;;;;;;;21.70;50.67;100132.94;4970789;28;20094;-64
2022/07/24 06:26:09;;;;;;;4.57;3.25;;;;;;;21.74;50.56;100137.03;4972028;28;20051;-63
2022/07/24 06:28:35;;;;;;;4.60;2.95;;;;;;;21.78;50.67;100138.41;4971921;28;20062;-64
2022/07/24 06:31:02;;;;;;;3.47;3.17;;;;;;;21.82;50.62;100134.44;4971654;28;20046;-64
2022/07/24 06:33:29;;;;;;;3.47;3.08;;;;;;;21.87;50.58;100139.34;4971332;28;20065;-64
2022/07/24 06:35:56;;;;;;;4.65;3.38;;;;;;;21.92;50.81;100147.78;4970521;28;20050;-63
2022/07/24 06:38:23;;;;;;;3.80;3.40;;;;;;;21.97;50.49;100145.47;4971813;28;20050;-64
2022/07/24 06:40:52;;;;;;;6.90;4.00;;;;;;;22.02;50.39;100141.50;4971764;28;20561;-64
2022/07/24 06:43:19;;;;;;;4.03;3.20;;;;;;;22.06;50.33;100134.84;4971784;28;20055;-63
2022/07/24 06:45:45;;;;;;;3.47;3.17;;;;;;;22.11;50.01;100136.06;4971493;28;20059;-65
2022/07/24 06:48:12;;;;;;;7.40;3.42;;;;;;;22.16;50.23;100132.91;4971513;28;20058;-63
2022/07/24 06:50:38;;;;;;;3.85;3.08;;;;;;;22.20;50.61;100128.91;4971610;28;20059;-65
2022/07/24 06:53:05;;;;;;;3.75;3.20;;;;;;;22.25;50.31;100120.41;4971483;28;20530;-64
2022/07/24 06:55:31;;;;;;;3.38;3.08;;;;;;;22.31;49.81;100127.00;4971710;28;20616;-63
2022/07/24 06:57:58;;;;;;;4.05;2.88;;;;;;;22.35;50.20;100123.84;4971577;28;20051;-66
2022/07/24 07:00:25;;;;;;;4.70;3.70;;;;;;;22.39;50.11;100122.53;4971474;28;20058;-64
2022/07/24 07:02:51;;;;;;;3.53;3.20;;;;;;;22.46;50.20;100127.28;4974426;28;20403;-65
2022/07/24 07:05:18;;;;;;;4.70;3.40;;;;;;;22.51;50.08;100131.16;4975513;28;20459;-63
2022/07/24 07:07:45;;;;;;;3.83;3.53;;;;;;;22.56;49.98;100133.41;4975431;28;20063;-65
2022/07/24 07:10:12;;;;;;;4.30;3.90;;;;;;;22.61;49.81;100135.66;4975318;28;20059;-65
2022/07/24 07:12:39;;;;;;;4.05;3.47;;;;;;;22.68;49.84;100133.16;4975274;28;20054;-64
2022/07/24 07:15:09;;;;;;;7.65;3.72;;;;;;;22.71;49.36;100128.31;4973942;28;20089;-63
2022/07/24 07:17:40;;;;;;;3.42;2.75;;;;;;;22.76;50.27;100131.38;4974998;28;20187;-62
2022/07/24 07:20:10;;;;;;;3.73;3.30;;;;;;;22.85;50.22;100137.63;4974450;28;20085;-63
2022/07/24 07:22:36;;;;;;;5.82;3.35;;;;;;;22.91;50.03;100125.41;4974997;28;20306;-63
2022/07/24 07:25:04;;;;;;;3.85;3.08;;;;;;;22.98;49.68;100121.09;4975169;28;20109;-66
2022/07/24 07:27:30;;;;;;;4.55;3.20;;;;;;;23.06;49.76;100119.44;4973765;28;20051;-63
2022/07/24 07:29:57;;;;;;;4.43;3.53;;;;;;;23.13;49.82;100131.22;4974769;28;20140;-64
2022/07/24 07:32:23;;;;;;;4.05;3.63;;;;;;;23.20;49.54;100132.25;4975401;28;20058;-65
2022/07/24 07:34:50;;;;;;;6.72;3.58;;;;;;;23.26;49.72;100128.09;4973950;28;20054;-64
2022/07/24 07:37:19;;;;;;;4.30;3.70;;;;;;;23.33;49.29;100122.91;4974871;28;20062;-62
2022/07/24 07:39:46;;;;;;;6.30;4.28;;;;;;;23.39;49.27;100127.66;4974763;28;20078;-63
2022/07/24 07:42:13;;;;;;;6.85;3.83;;;;;;;23.46;49.32;100133.22;4974757;28;20078;-64
2022/07/24 07:44:40;;;;;;;3.90;3.53;;;;;;;23.52;49.02;100128.03;4974789;28;20419;-63
2022/07/24 07:47:06;;;;;;;6.55;3.47;;;;;;;23.59;49.08;100139.00;4974774;28;20495;-62
2022/07/24 07:49:33;;;;;;;5.55;3.33;;;;;;;23.65;49.36;100130.25;4974183;28;20055;-63
2022/07/24 07:52:01;;;;;;;4.40;4.00;;;;;;;23.72;48.86;100133.13;4974542;28;20059;-64
2022/07/24 07:54:28;;;;;;;4.10;3.70;;;;;;;23.80;48.73;100135.84;4974545;28;20098;-62
2022/07/24 07:56:55;;;;;;;4.55;3.50;;;;;;;23.89;49.01;100133.16;4957393;28;20104;-62
2022/07/24 07:59:21;;;;;;;5.80;3.90;;;;;;;23.96;48.88;100142.25;4973108;28;20058;-62
2022/07/24 08:01:48;;;;;;;4.57;4.18;;;;;;;24.04;48.67;100136.88;4974519;28;20055;-64
2022/07/24 08:04:15;;;;;;;5.20;4.50;;;;;;;24.12;48.31;100132.53;4974166;28;20104;-63
2022/07/24 08:06:41;;;;;;;5.60;4.40;;;;;;;24.19;48.20;100133.56;4974276;28;20495;-64
2022/07/24 08:09:08;;;;;;;4.35;3.88;;;;;;;24.26;48.48;100123.78;4973732;28;20492;-65
2022/07/24 08:11:35;;;;;;;7.43;4.40;;;;;;;24.34;48.10;100122.97;4974173;28;20062;-64
2022/07/24 08:14:02;;;;;;;4.97;4.40;;;;;;;24.43;48.32;100123.78;4972466;28;20051;-63
2022/07/24 08:16:28;;;;;;;5.72;3.90;;;;;;;24.52;48.32;100124.63;4973134;28;20055;-63
2022/07/24 08:18:55;;;;;;;5.55;4.28;;;;;;;24.58;47.55;100130.16;4973962;28;20059;-64
2022/07/24 08:21:22;;;;;;;5.55;4.28;;;;;;;24.67;47.56;100124.78;4973940;28;20057;-64
2022/07/24 08:23:48;;;;;;;4.95;4.45;;;;;;;24.75;47.92;100122.06;4973909;28;20047;-66
2022/07/24 08:26:15;;;;;;;5.93;4.45;;;;;;;24.85;47.58;100129.97;4972873;28;20109;-64
2022/07/24 08:28:42;;;;;;;7.05;4.07;;;;;;;24.93;47.78;100121.03;4973750;28;20051;-64
2022/07/24 08:31:08;;;;;;;5.10;4.40;;;;;;;25.01;47.59;100126.41;4972697;28;20094;-63
2022/07/24 08:33:35;;;;;;;4.55;3.97;;;;;;;25.10;47.36;100128.03;4972650;28;20061;-65
2022/07/24 08:36:02;;;;;;;5.85;3.63;;;;;;;25.22;47.41;100122.25;4972534;28;20463;-64
2022/07/24 08:38:28;;;;;;;6.38;4.05;;;;;;;25.33;47.36;100127.25;4973492;28;20047;-63
2022/07/24 08:40:55;;;;;;;4.53;4.05;;;;;;;25.44;46.85;100127.88;4973877;28;20278;-65
2022/07/24 08:43:22;;;;;;;4.88;3.97;;;;;;;25.56;47.13;100131.03;4973698;28;20059;-65
2022/07/24 08:45:52;;;;;;;6.78;4.75;;;;;;;25.66;47.10;100122.72;4973659;28;20443;-63
2022/07/24 08:48:20;;;;;;;5.10;4.28;;;;;;;25.79;46.54;100127.56;4972319;28;20236;-62
2022/07/24 08:50:47;;;;;;;5.68;4.43;;;;;;;25.89;46.35;100128.16;4972040;28;20574;-64
2022/07/24 08:53:15;;;;;;;5.45;4.20;;;;;;;25.98;45.90;100116.28;4973386;28;20054;-63
2022/07/24 08:55:41;;;;;;;6.35;4.63;;;;;;;26.07;45.92;100114.38;4972139;28;20062;-65
2022/07/24 08:58:08;;;;;;;4.90;3.95;;;;;;;26.19;46.03;100119.31;4973231;28;20054;-64
2022/07/24 09:00:34;;;;;;;4.90;4.40;;;;;;;26.30;45.84;100118.06;4973115;28;20485;-63
2022/07/24 09:03:02;;;;;;;5.35;4.60;;;;;;;26.39;45.97;100115.13;4973175;28;20050;-66
2022/07/24 09:05:31;;;;;;;4.40;4.00;;;;;;;26.49;45.69;100114.88;4973051;28;20384;-64
2022/07/24 09:08:09;;;;;;;5.00;4.55;;;;;;;26.56;46.06;100112.25;4971697;28;20051;-66
2022/07/24 09:10:35;;;;;;;6.57;4.57;;;;;;;26.67;45.32;100109.13;4971731;28;20114;-65
2022/07/24 09:13:13;;;;;;;5.07;4.53;;;;;;;26.71;44.53;100112.28;4973052;28;20567;-64
2022/07/24 09:15:46;;;;;;;4.90;3.92;;;;;;;26.84;44.91;100102.69;4971673;28;20082;-63
2022/07/24 09:18:45;;;;;;;6.38;3.85;;;;;;;26.89;45.25;100095.72;4971384;28;20145;-63
2022/07/24 09:21:14;;;;;;;4.90;3.92;;;;;;;27.03;44.78;100096.75;4960366;28;20066;-63
2022/07/24 09:23:43;;;;;;;6.22;4.13;;;;;;;27.14;44.45;100108.94;4971462;28;20050;-63
2022/07/24 09:26:10;;;;;;;5.95;5.13;;;;;;;27.23;43.80;100100.72;4970345;28;20058;-65
2022/07/24 09:28:48;;;;;;;5.40;4.18;;;;;;;27.28;44.50;100096.44;4971013;28;20047;-63
2022/07/24 09:31:15;;;;;;;5.63;4.63;;;;;;;27.41;44.04;100100.31;4971423;28;20050;-64
2022/07/24 09:33:41;;;;;;;6.03;4.45;;;;;;;27.49;43.81;100096.66;4972744;28;20525;-63
2022/07/24 09:36:13;;;;;;;4.75;4.03;;;;;;;27.56;44.60;100102.97;4972338;28;20105;-64
2022/07/24 09:38:49;;;;;;;5.80;4.20;;;;;;;27.63;44.20;100089.56;4972307;28;20062;-64
2022/07/24 09:41:23;;;;;;;7.35;4.30;;;;;;;27.74;43.40;100099.03;4972294;28;20507;-63
2022/07/24 09:44:00;;;;;;;6.03;4.75;;;;;;;27.82;43.31;100101.59;4972636;28;20073;-63
2022/07/24 09:46:27;;;;;;;7.95;4.97;;;;;;;27.95;43.36;100093.63;4971300;28;20055;-64
2022/07/24 09:48:57;;;;;;;6.35;5.18;;;;;;;28.04;42.83;100088.06;4972292;28;20393;-66
2022/07/24 09:51:27;;;;;;;7.20;5.45;;;;;;;28.11;42.67;100086.25;4971020;28;20129;-63
2022/07/24 09:53:56;;;;;;;6.35;4.90;;;;;;;28.17;42.39;100095.44;4971000;28;20047;-65
2022/07/24 09:56:23;;;;;;;5.68;4.20;;;;;;;28.22;42.82;100088.41;4971025;28;20438;-64
2022/07/24 09:58:53;;;;;;;5.47;4.50;;;;;;;28.29;42.91;100087.69;4971833;28;20694;-64
2022/07/24 10:01:22;;;;;;;6.25;4.85;;;;;;;28.34;41.94;100085.22;4971803;28;20423;-65
2022/07/24 10:03:50;;;;;;;5.68;3.92;;;;;;;28.42;42.92;100082.38;4972113;28;20047;-65
2022/07/24 10:06:21;;;;;;;5.25;4.10;;;;;;;28.51;43.54;100087.63;4971129;28;20099;-65
2022/07/24 10:08:50;;;;;;;6.25;4.35;;;;;;;28.59;43.38;100082.88;4970856;28;20049;-64
2022/07/24 10:11:18;;;;;;;5.57;4.20;;;;;;;28.68;42.30;100080.00;4970875;28;20058;-65
2022/07/24 10:13:46;;;;;;;5.03;4.22;;;;;;;28.78;42.51;100091.31;4970923;28;20051;-65
2022/07/24 10:16:12;;;;;;;8.10;4.70;;;;;;;28.87;42.38;100083.88;4970951;28;20101;-63
2022/07/24 10:19:04;;;;;;;6.88;5.00;;;;;;;28.93;41.75;100085.78;4971727;28;20050;-64
2022/07/24 10:21:42;;;;;;;5.82;3.80;;;;;;;29.07;42.24;100080.44;4970835;28;20580;-63
2022/07/24 10:24:10;;;;;;;9.88;5.20;;;;;;;29.20;41.89;100087.78;4971895;28;20614;-64
2022/07/24 10:26:43;;;;;;;5.22;4.40;;;;;;;29.29;40.51;100075.72;4971919;28;20133;-66
2022/07/24 10:29:11;;;;;;;10.25;4.85;;;;;;;29.38;40.50;100071.78;4970351;28;20047;-64
2022/07/24 10:31:43;;;;;;;4.75;4.25;;;;;;;29.46;40.71;100070.78;4971858;28;20738;-64
2022/07/24 10:34:18;;;;;;;6.97;5.03;;;;;;;29.52;40.61;100080.81;4972044;28;20047;-64
2022/07/24 10:36:54;;;;;;;7.22;5.13;;;;;;;29.62;40.18;100075.00;4971569;28;20117;-64
2022/07/24 10:39:31;;;;;;;5.68;4.70;;;;;;;29.72;39.82;100071.91;4963124;28;20054;-63
2022/07/24 10:42:06;;;;;;;4.82;4.20;;;;;;;29.84;40.27;100074.81;4951358;29;20054;-65
2022/07/24 10:44:33;;;;;;;6.38;5.22;;;;;;;29.95;39.60;100073.38;4952498;28;20051;-64
2022/07/24 10:47:12;;;;;;;6.10;4.60;;;;;;;30.02;39.33;100066.03;4955144;28;20089;-65
2022/07/24 10:49:38;;;;;;;4.90;4.40;;;;;;;30.19;39.55;100075.69;4951947;29;20059;-64
2022/07/24 10:52:32;;;;;;;8.57;4.35;;;;;;;30.30;39.77;100081.31;4950528;29;20083;-63
2022/07/24 10:55:26;;;;;;;8.88;5.20;;;;;;;30.54;39.80;100059.94;4948273;29;20055;-65
2022/07/24 10:58:01;;;;;;;5.40;4.00;;;;;;;30.88;39.79;100062.63;4952303;29;20484;-64
2022/07/24 11:00:54;;;;;;;5.65;4.80;;;;;;;31.14;37.70;100069.00;4952240;29;20575;-65
2022/07/24 11:03:25;;;;;;;4.93;4.35;;;;;;;31.52;38.44;100052.88;4952206;29;20043;-64
2022/07/24 11:06:11;;;;;;;5.07;3.83;;;;;;;31.89;38.60;100052.22;4951110;29;20047;-66
2022/07/24 11:08:39;;;;;;;5.07;3.60;;;;;;;32.40;38.31;100058.44;4950673;29;20058;-64
2022/07/24 11:11:12;;;;;;;6.32;4.40;;;;;;;32.89;36.98;100057.75;4950374;29;20059;-63
2022/07/24 11:13:41;;;;;;;6.40;4.05;;;;;;;33.35;35.78;100047.28;4950739;29;20098;-66
2022/07/24 11:16:11;;;;;;;5.65;3.85;;;;;;;33.76;34.41;100047.53;4952219;28;20052;-64
2022/07/24 11:18:49;;;;;;;4.30;3.53;;;;;;;34.13;35.47;100051.97;4951936;29;20091;-65
2022/07/24 11:21:28;;;;;;;4.97;3.97;;;;;;;34.46;34.52;100046.13;4952261;28;20059;-64
2022/07/24 11:24:13;;;;;;;6.28;3.38;;;;;;;34.67;34.55;100037.31;4952151;28;20055;-64
2022/07/24 11:27:05;;;;;;;4.43;3.58;;;;;;;34.84;32.45;100042.03;4952130;29;20147;-64
2022/07/24 11:29:35;;;;;;;4.38;3.33;;;;;;;34.96;33.29;100034.63;4950907;29;20051;-64